createdAt,value
2019-01-31T00:02:10.008Z,13.50
2019-01-31T00:07:00.798Z,12.20
2019-01-31T00:12:00.257Z,14.50
2019-01-31T00:16:50.596Z,13.10
2019-01-31T00:21:41.420Z,9.40
2019-01-31T00:26:33.168Z,10.30
2019-01-31T00:31:24.821Z,9.70
2019-01-31T00:36:33.194Z,12.60
2019-01-31T00:41:36.648Z,13.30
2019-01-31T00:46:25.049Z,9.70
2019-01-31T00:51:16.475Z,10.80
2019-01-31T00:56:07.846Z,9.80
2019-01-31T01:01:02.884Z,9.20
2019-01-31T01:05:54.297Z,9.00
2019-01-31T01:10:45.683Z,9.00
2019-01-31T01:15:36.979Z,9.00
2019-01-31T01:20:28.615Z,9.40
2019-01-31T01:25:22.227Z,9.30
2019-01-31T01:30:13.246Z,9.90
2019-01-31T01:35:04.853Z,8.20
2019-01-31T01:39:56.798Z,8.40
2019-01-31T01:44:48.594Z,8.80
2019-01-31T01:49:40.042Z,8.70
2019-01-31T01:54:31.694Z,7.90
2019-01-31T01:59:23.115Z,6.80
2019-01-31T02:04:17.035Z,8.00
2019-01-31T02:09:10.484Z,6.90
2019-01-31T02:14:01.365Z,7.30
2019-01-31T02:18:55.098Z,7.10
2019-01-31T02:23:46.202Z,7.50
2019-01-31T02:28:37.800Z,6.50
2019-01-31T02:33:29.259Z,8.00
2019-01-31T02:38:21.027Z,7.00
2019-01-31T02:43:14.599Z,7.20
2019-01-31T02:48:05.649Z,7.20
2019-01-31T02:52:57.404Z,6.90
2019-01-31T02:57:48.920Z,6.00
2019-01-31T03:02:40.662Z,6.60
2019-01-31T03:07:32.248Z,6.90
2019-01-31T03:12:23.979Z,6.30
2019-01-31T03:17:15.501Z,6.20
2019-01-31T03:22:09.110Z,7.30
2019-01-31T03:27:00.119Z,7.00
2019-01-31T03:31:51.934Z,7.10
2019-01-31T03:41:55.072Z,18.00
2019-01-31T03:46:46.959Z,13.30
2019-01-31T03:51:38.573Z,8.70
2019-01-31T03:56:30.979Z,11.40
2019-01-31T04:01:22.174Z,10.30
2019-01-31T04:06:13.754Z,9.40
2019-01-31T04:11:05.524Z,8.60
2019-01-31T04:15:57.147Z,8.40
2019-01-31T04:20:51.704Z,8.70
2019-01-31T04:25:42.883Z,9.70
2019-01-31T04:30:34.277Z,6.80
2019-01-31T04:35:43.084Z,11.00
2019-01-31T04:40:31.911Z,7.90
2019-01-31T04:45:22.611Z,7.20
2019-01-31T04:50:15.226Z,8.30
2019-01-31T04:55:08.861Z,7.30
2019-01-31T05:00:00.248Z,8.20
2019-01-31T05:04:53.518Z,7.60
2019-01-31T05:09:46.024Z,7.90
2019-01-31T05:14:39.209Z,7.30
2019-01-31T05:19:32.263Z,7.90
2019-01-31T05:24:35.831Z,9.20
2019-01-31T05:29:24.748Z,9.00
2019-01-31T05:34:17.998Z,8.70
2019-01-31T05:39:09.890Z,8.00
2019-01-31T05:44:16.282Z,10.00
2019-01-31T05:49:05.700Z,11.10
2019-01-31T05:54:03.076Z,9.50
2019-01-31T05:59:06.559Z,9.00
2019-01-31T06:03:54.876Z,7.40
2019-01-31T06:08:45.191Z,8.80
2019-01-31T06:13:52.995Z,9.00
2019-01-31T06:18:49.471Z,9.70
2019-01-31T06:23:53.187Z,9.80
2019-01-31T06:28:42.693Z,9.90
2019-01-31T06:33:49.054Z,10.00
2019-01-31T06:38:37.009Z,9.10
2019-01-31T06:43:28.457Z,8.40
2019-01-31T06:48:19.488Z,9.80
2019-01-31T06:53:10.045Z,10.10
2019-01-31T06:57:59.144Z,9.00
2019-01-31T07:02:57.872Z,10.20
2019-01-31T07:07:47.237Z,9.90
2019-01-31T07:12:37.597Z,10.20
2019-01-31T07:17:34.896Z,12.40
2019-01-31T07:22:22.856Z,10.80
2019-01-31T07:27:12.609Z,8.40
2019-01-31T07:32:11.494Z,10.60
2019-01-31T07:37:00.449Z,8.80
2019-01-31T07:41:57.708Z,11.20
2019-01-31T07:46:47.507Z,9.40
2019-01-31T07:51:36.839Z,9.30
2019-01-31T07:56:28.972Z,12.00
2019-01-31T08:01:20.270Z,11.80
2019-01-31T08:06:12.480Z,12.50
2019-01-31T08:11:05.072Z,10.90
2019-01-31T08:15:56.906Z,13.40
2019-01-31T08:20:49.427Z,12.10
2019-01-31T08:25:41.507Z,9.60
2019-01-31T08:30:37.714Z,9.90
2019-01-31T08:35:30.036Z,8.80
2019-01-31T08:40:19.409Z,8.50
2019-01-31T08:45:25.956Z,11.00
2019-01-31T08:50:30.026Z,10.70
2019-01-31T08:55:34.697Z,11.50
2019-01-31T09:00:21.433Z,11.20
2019-01-31T09:05:26.250Z,11.00
2019-01-31T09:10:28.906Z,12.20
2019-01-31T09:15:32.084Z,11.10
2019-01-31T09:20:35.404Z,10.90
2019-01-31T09:25:36.691Z,11.60
2019-01-31T09:30:40.109Z,12.40
2019-01-31T09:35:42.468Z,11.30
2019-01-31T09:40:45.386Z,12.80
2019-01-31T09:45:48.479Z,12.30
2019-01-31T09:50:52.139Z,11.40
2019-01-31T09:55:40.370Z,10.70
2019-01-31T10:00:29.810Z,10.50
2019-01-31T10:05:35.619Z,10.40
2019-01-31T10:10:32.686Z,9.80
2019-01-31T10:15:30.561Z,10.20
2019-01-31T10:20:34.544Z,10.30
2019-01-31T10:25:31.797Z,10.20
2019-01-31T10:30:39.245Z,10.40
2019-01-31T10:35:27.925Z,10.00
2019-01-31T10:40:17.565Z,8.70
2019-01-31T10:45:09.877Z,9.50
2019-01-31T10:50:17.276Z,9.20
2019-01-31T10:55:19.620Z,10.60
2019-01-31T11:00:15.554Z,9.50
2019-01-31T11:05:23.231Z,9.60
2019-01-31T11:28:26.319Z,15.10
2019-01-31T11:33:23.034Z,11.90
2019-01-31T11:38:26.882Z,12.60
2019-01-31T11:43:23.642Z,12.90
2019-01-31T11:48:26.961Z,42.10
2019-01-31T11:53:23.492Z,10.70
2019-01-31T11:58:27.382Z,8.60
2019-01-31T12:03:15.702Z,7.50
2019-01-31T12:08:20.663Z,7.20
2019-01-31T12:13:23.731Z,7.80
2019-01-31T12:18:24.657Z,7.80
2019-01-31T12:23:27.623Z,8.00
2019-01-31T12:28:30.498Z,7.80
2019-01-31T12:33:33.975Z,7.50
2019-01-31T12:38:37.679Z,6.50
2019-01-31T12:43:40.414Z,7.10
2019-01-31T12:48:43.559Z,7.30
2019-01-31T12:53:45.908Z,8.30
2019-01-31T12:58:41.766Z,7.50
2019-01-31T13:03:29.805Z,6.80
2019-01-31T13:08:28.596Z,7.30
2019-01-31T13:13:25.831Z,6.40
2019-01-31T13:18:28.973Z,6.80
2019-01-31T13:23:32.654Z,7.10
2019-01-31T13:28:18.923Z,6.60
2019-01-31T13:33:17.969Z,7.60
2019-01-31T13:38:06.934Z,6.40
2019-01-31T13:43:12.824Z,17.50
2019-01-31T13:48:16.187Z,8.10
2019-01-31T13:53:19.226Z,8.80
2019-01-31T13:58:24.008Z,9.20
2019-01-31T14:03:26.746Z,8.40
2019-01-31T14:08:27.718Z,12.60
2019-01-31T14:13:30.525Z,9.60
2019-01-31T14:18:34.110Z,10.30
2019-01-31T14:23:39.166Z,10.40
2019-01-31T14:28:42.252Z,10.70
2019-01-31T14:33:45.335Z,10.50
2019-01-31T14:38:48.144Z,11.20
2019-01-31T14:43:48.660Z,10.50
2019-01-31T14:48:51.912Z,10.20
2019-01-31T14:53:55.672Z,10.80
2019-01-31T14:58:57.170Z,10.80
2019-01-31T15:03:45.231Z,9.20
2019-01-31T15:08:50.598Z,11.60
2019-01-31T15:13:54.595Z,11.80
2019-01-31T15:18:58.395Z,12.10
2019-01-31T15:24:00.951Z,12.30
2019-01-31T15:29:04.419Z,12.90
2019-01-31T15:34:05.895Z,12.70
2019-01-31T15:38:52.543Z,11.40
2019-01-31T15:43:57.948Z,14.00
2019-01-31T15:48:59.218Z,13.30
2019-01-31T15:54:02.118Z,13.50
2019-01-31T15:58:50.349Z,11.40
2019-01-31T16:03:49.318Z,13.50
2019-01-31T16:08:53.027Z,15.00
2019-01-31T16:13:56.344Z,15.40
2019-01-31T16:19:01.431Z,16.40
2019-01-31T16:24:04.719Z,15.90
2019-01-31T16:29:07.710Z,16.90
2019-01-31T16:34:11.043Z,16.60
2019-01-31T16:39:16.177Z,17.40
2019-01-31T16:44:18.327Z,15.60
2019-01-31T16:49:22.032Z,14.90
2019-01-31T16:54:23.562Z,16.00
2019-01-31T16:59:10.703Z,20.40
2019-01-31T17:04:08.228Z,13.50
2019-01-31T17:09:11.967Z,13.40
2019-01-31T17:14:14.297Z,16.40
2019-01-31T17:19:11.323Z,16.80
2019-01-31T17:24:15.107Z,17.70
2019-01-31T17:29:04.228Z,14.70
2019-01-31T17:34:09.808Z,16.80
2019-01-31T17:39:12.479Z,18.40
2019-01-31T17:44:14.113Z,18.40
2019-01-31T17:49:17.339Z,18.20
2019-01-31T17:54:04.654Z,14.80
2019-01-31T17:59:08.426Z,23.10
2019-01-31T18:04:10.958Z,18.40
2019-01-31T18:09:14.179Z,17.90
2019-01-31T18:14:11.499Z,17.90
2019-01-31T18:19:00.567Z,16.20
2019-01-31T18:24:04.558Z,16.60
2019-01-31T18:29:06.271Z,15.60
2019-01-31T18:34:08.134Z,17.90
2019-01-31T18:39:11.444Z,18.70
2019-01-31T18:44:12.880Z,19.30
2019-01-31T18:49:14.294Z,19.40
2019-01-31T18:54:16.320Z,25.20
2019-01-31T18:59:10.353Z,18.20
2019-01-31T19:04:11.686Z,18.30
2019-01-31T19:09:14.929Z,17.50
2019-01-31T19:14:15.657Z,17.90
2019-01-31T19:19:18.755Z,16.80
2019-01-31T19:24:21.663Z,17.00
2019-01-31T19:29:09.246Z,17.70
2019-01-31T19:34:08.282Z,17.00
2019-01-31T19:39:12.429Z,16.60
2019-01-31T19:44:13.896Z,17.00
2019-01-31T19:49:16.795Z,17.50
2019-01-31T19:54:19.726Z,16.60
2019-01-31T19:59:13.903Z,16.20
2019-01-31T20:04:11.611Z,16.00
2019-01-31T20:15:32.319Z,20.10
2019-01-31T20:20:36.993Z,15.50
2019-01-31T20:25:34.537Z,14.60
2019-01-31T20:30:23.159Z,12.80
2019-01-31T20:35:11.754Z,10.70
2019-01-31T20:40:02.998Z,12.30
2019-01-31T20:45:08.447Z,13.70
2019-01-31T20:49:57.090Z,14.60
2019-01-31T20:54:46.553Z,12.70
2019-01-31T20:59:38.777Z,11.60
2019-01-31T21:04:27.909Z,10.50
2019-01-31T21:09:23.767Z,12.40
2019-01-31T21:14:13.482Z,11.20
2019-01-31T21:19:10.902Z,12.50
2019-01-31T21:24:09.180Z,13.40
2019-01-31T21:28:58.318Z,11.80
2019-01-31T21:39:37.581Z,14.00
2019-01-31T21:44:24.246Z,12.50
2019-01-31T21:49:23.731Z,14.40
2019-01-31T22:00:44.061Z,18.60
2019-01-31T22:05:47.155Z,15.90
2019-01-31T22:10:50.399Z,15.60
2019-01-31T22:15:52.836Z,14.40
2019-01-31T22:20:55.281Z,13.80
2019-01-31T22:25:43.168Z,11.80
2019-01-31T22:30:47.999Z,14.70
2019-01-31T22:35:36.153Z,13.30
2019-01-31T22:40:29.075Z,12.70
2019-01-31T22:45:20.130Z,11.80
2019-01-31T22:50:13.648Z,11.80
2019-01-31T22:55:04.612Z,9.90
2019-01-31T22:59:57.911Z,12.20
2019-01-31T23:04:48.993Z,11.10
2019-01-31T23:09:42.675Z,12.30
2019-01-31T23:14:42.562Z,12.40
2019-01-31T23:19:31.758Z,11.40
2019-01-31T23:24:20.823Z,10.90
2019-01-31T23:29:26.373Z,11.90
2019-01-31T23:34:29.735Z,12.10
2019-01-31T23:39:18.004Z,10.20
2019-01-31T23:44:08.896Z,8.30
2019-01-31T23:48:59.839Z,10.80
2019-01-31T23:53:59.165Z,9.10
2019-01-31T23:58:46.580Z,7.00
